createdAt,value
2023-05-16T00:00:42.842Z,16.20
2023-05-16T00:03:12.386Z,19.02
2023-05-16T00:05:42.956Z,14.93
2023-05-16T00:08:11.929Z,18.05
2023-05-16T00:10:41.069Z,16.55
2023-05-16T00:13:10.261Z,15.82
2023-05-16T00:15:41.157Z,17.75
2023-05-16T00:18:10.346Z,12.40
2023-05-16T00:20:46.052Z,14.48
2023-05-16T00:23:15.014Z,12.13
2023-05-16T00:25:44.625Z,15.95
2023-05-16T00:28:13.679Z,12.10
2023-05-16T00:30:42.928Z,9.43
2023-05-16T00:33:12.583Z,9.98
2023-05-16T00:35:41.652Z,9.13
2023-05-16T00:38:12.226Z,11.52
2023-05-16T00:40:41.223Z,9.38
2023-05-16T00:43:12.296Z,11.05
2023-05-16T00:45:41.285Z,7.55
2023-05-16T00:48:10.755Z,9.20
2023-05-16T00:50:41.869Z,8.73
2023-05-16T00:53:12.518Z,10.07
2023-05-16T00:55:41.534Z,6.88
2023-05-16T00:58:11.751Z,7.45
2023-05-16T01:00:40.833Z,8.77
2023-05-16T01:03:10.370Z,8.38
2023-05-16T01:05:40.326Z,6.63
2023-05-16T01:08:09.248Z,10.25
2023-05-16T01:10:48.102Z,7.10
2023-05-16T01:13:23.464Z,8.80
2023-05-16T01:16:01.443Z,11.70
2023-05-16T01:18:38.655Z,13.55
2023-05-16T01:21:14.299Z,10.75
2023-05-16T01:23:53.029Z,8.27
2023-05-16T01:26:26.810Z,14.48
2023-05-16T01:28:56.532Z,6.63
2023-05-16T01:31:26.078Z,4.97
2023-05-16T01:33:55.128Z,4.25
2023-05-16T01:36:27.864Z,10.80
2023-05-16T01:39:12.964Z,9.88
2023-05-16T01:41:50.829Z,7.97
2023-05-16T01:44:27.429Z,4.95
2023-05-16T01:47:00.473Z,8.55
2023-05-16T01:49:36.185Z,7.05
2023-05-16T01:52:10.492Z,7.82
2023-05-16T01:54:45.043Z,6.25
2023-05-16T01:57:18.511Z,7.13
2023-05-16T01:59:48.518Z,6.93
2023-05-16T02:02:19.985Z,11.07
2023-05-16T02:04:49.010Z,7.22
2023-05-16T02:07:18.146Z,7.78
2023-05-16T02:09:47.939Z,5.30
2023-05-16T02:12:18.442Z,8.43
2023-05-16T02:14:47.485Z,7.95
2023-05-16T02:17:16.682Z,10.73
2023-05-16T02:19:45.790Z,3.97
2023-05-16T02:22:15.178Z,8.93
2023-05-16T02:24:45.265Z,4.82
2023-05-16T02:27:15.845Z,11.00
2023-05-16T02:29:46.224Z,6.22
2023-05-16T02:32:15.258Z,8.65
2023-05-16T02:34:44.373Z,11.35
2023-05-16T02:37:13.602Z,12.30
2023-05-16T02:39:42.723Z,7.50
2023-05-16T02:42:13.169Z,16.60
2023-05-16T02:44:43.103Z,10.15
2023-05-16T02:47:13.792Z,10.80
2023-05-16T02:49:42.778Z,11.35
2023-05-16T02:52:14.000Z,11.40
2023-05-16T02:54:43.164Z,10.90
2023-05-16T02:57:12.304Z,8.55
2023-05-16T02:59:41.331Z,13.50
2023-05-16T03:02:11.493Z,12.38
2023-05-16T03:04:42.103Z,8.93
2023-05-16T03:07:11.106Z,8.35
2023-05-16T03:09:40.182Z,8.50
2023-05-16T03:12:09.434Z,5.50
2023-05-16T03:14:38.369Z,5.90
2023-05-16T03:17:07.309Z,8.90
2023-05-16T03:19:36.520Z,11.23
2023-05-16T03:22:06.979Z,10.32
2023-05-16T03:24:35.992Z,9.95
2023-05-16T03:27:05.865Z,9.23
2023-05-16T03:29:35.277Z,9.65
2023-05-16T03:32:04.939Z,7.80
2023-05-16T03:34:33.942Z,12.48
2023-05-16T03:37:03.316Z,12.60
2023-05-16T03:39:33.867Z,8.20
2023-05-16T03:42:02.997Z,8.15
2023-05-16T03:44:31.949Z,8.38
2023-05-16T03:47:18.243Z,6.85
2023-05-16T03:50:05.948Z,10.80
2023-05-16T03:52:35.822Z,8.30
2023-05-16T03:55:07.130Z,6.03
2023-05-16T03:57:36.399Z,5.75
2023-05-16T04:00:08.359Z,8.68
2023-05-16T04:02:44.088Z,7.47
2023-05-16T04:05:14.725Z,7.35
2023-05-16T04:07:43.787Z,5.22
2023-05-16T04:10:15.720Z,3.38
2023-05-16T04:12:45.152Z,4.85
2023-05-16T04:15:14.658Z,9.60
2023-05-16T04:17:43.817Z,4.57
2023-05-16T04:20:32.878Z,2.85
2023-05-16T04:23:02.329Z,5.57
2023-05-16T04:25:32.927Z,6.43
2023-05-16T04:28:02.023Z,6.90
2023-05-16T04:30:50.609Z,2.75
2023-05-16T04:33:19.902Z,3.33
2023-05-16T04:35:48.877Z,4.38
2023-05-16T04:38:18.006Z,5.20
2023-05-16T04:40:50.946Z,2.40
2023-05-16T04:43:20.139Z,2.45
2023-05-16T04:46:08.014Z,4.35
2023-05-16T04:48:37.298Z,3.47
2023-05-16T04:51:06.727Z,2.58
2023-05-16T04:53:35.775Z,6.85
2023-05-16T04:56:07.023Z,3.30
2023-05-16T04:58:36.292Z,5.85
2023-05-16T05:01:05.820Z,7.32
2023-05-16T05:03:36.131Z,6.85
2023-05-16T05:06:05.702Z,4.85
2023-05-16T05:08:35.024Z,7.90
2023-05-16T05:11:05.477Z,6.65
2023-05-16T05:13:34.584Z,3.47
2023-05-16T05:16:06.989Z,2.58
2023-05-16T05:18:35.978Z,10.27
2023-05-16T05:21:05.809Z,3.35
2023-05-16T05:23:35.073Z,3.13
2023-05-16T05:26:06.460Z,4.90
2023-05-16T05:28:35.416Z,5.97
2023-05-16T05:31:05.522Z,1.63
2023-05-16T05:33:34.471Z,1.75
2023-05-16T05:36:04.202Z,2.20
2023-05-16T05:38:33.282Z,6.25
2023-05-16T05:41:02.379Z,2.25
2023-05-16T05:43:32.885Z,3.33
2023-05-16T05:46:01.939Z,7.85
2023-05-16T05:48:32.616Z,4.93
2023-05-16T05:51:01.686Z,1.75
2023-05-16T05:53:31.649Z,4.45
2023-05-16T05:56:00.614Z,2.97
2023-05-16T05:58:30.531Z,1.30
2023-05-16T06:01:01.213Z,6.55
2023-05-16T06:03:30.553Z,6.10
2023-05-16T06:05:59.787Z,1.65
2023-05-16T06:08:28.796Z,1.98
2023-05-16T06:10:57.980Z,3.20
2023-05-16T06:13:27.439Z,3.80
2023-05-16T06:15:56.429Z,4.03
2023-05-16T06:18:26.886Z,2.85
2023-05-16T06:20:55.922Z,4.07
2023-05-16T06:23:25.070Z,2.95
2023-05-16T06:25:54.154Z,4.28
2023-05-16T06:28:24.295Z,2.90
2023-05-16T06:30:53.444Z,2.47
2023-05-16T06:33:22.890Z,2.20
2023-05-16T06:35:53.378Z,8.02
2023-05-16T06:38:22.428Z,1.23
2023-05-16T06:40:51.406Z,2.25
2023-05-16T06:43:20.512Z,2.17
2023-05-16T06:45:49.765Z,0.77
2023-05-16T06:48:20.059Z,1.58
2023-05-16T06:50:50.079Z,3.22
2023-05-16T06:53:20.918Z,1.70
2023-05-16T06:55:49.991Z,3.75
2023-05-16T06:58:19.074Z,1.25
2023-05-16T07:00:50.868Z,7.28
2023-05-16T07:03:19.987Z,4.65
2023-05-16T07:05:51.527Z,3.88
2023-05-16T07:08:21.988Z,3.40
2023-05-16T07:10:51.051Z,1.70
2023-05-16T07:13:20.157Z,2.58
2023-05-16T07:15:49.115Z,3.22
2023-05-16T07:18:18.261Z,2.58
2023-05-16T07:20:47.446Z,1.92
2023-05-16T07:23:16.591Z,6.78
2023-05-16T07:25:47.229Z,4.07
2023-05-16T07:28:16.309Z,3.15
2023-05-16T07:30:45.590Z,4.45
2023-05-16T07:33:14.768Z,3.70
2023-05-16T07:35:44.013Z,4.75
2023-05-16T07:38:13.395Z,2.42
2023-05-16T07:40:42.362Z,5.32
2023-05-16T07:43:12.764Z,2.83
2023-05-16T07:45:42.123Z,3.05
2023-05-16T07:48:11.217Z,2.78
2023-05-16T07:50:40.350Z,3.42
2023-05-16T07:53:09.870Z,1.92
2023-05-16T07:55:39.067Z,4.78
2023-05-16T07:58:10.494Z,2.20
2023-05-16T08:00:41.042Z,1.25
2023-05-16T08:03:10.678Z,3.75
2023-05-16T08:05:40.226Z,1.48
2023-05-16T08:08:09.315Z,5.88
2023-05-16T08:10:38.312Z,1.90
2023-05-16T08:13:07.616Z,1.70
2023-05-16T08:15:37.397Z,2.22
2023-05-16T08:18:14.856Z,3.75
2023-05-16T08:20:45.448Z,1.90
2023-05-16T08:23:16.575Z,3.88
2023-05-16T08:25:45.696Z,2.60
2023-05-16T08:28:15.398Z,1.17
2023-05-16T08:30:45.819Z,1.45
2023-05-16T08:33:18.689Z,1.52
2023-05-16T08:35:49.628Z,1.60
2023-05-16T08:38:18.831Z,3.83
2023-05-16T08:40:48.349Z,2.80
2023-05-16T08:43:17.667Z,9.13
2023-05-16T08:45:46.977Z,2.72
2023-05-16T08:48:19.891Z,2.38
2023-05-16T08:50:49.112Z,2.60
2023-05-16T08:53:25.551Z,3.20
2023-05-16T08:55:55.737Z,3.42
2023-05-16T08:58:25.088Z,6.53
2023-05-16T09:00:54.435Z,1.67
2023-05-16T09:03:25.473Z,1.30
2023-05-16T09:05:54.512Z,2.60
2023-05-16T09:08:23.560Z,1.52
2023-05-16T09:10:52.582Z,1.63
2023-05-16T09:13:21.594Z,0.73
2023-05-16T09:16:12.970Z,0.52
2023-05-16T09:18:46.014Z,2.72
2023-05-16T09:21:16.080Z,2.33
2023-05-16T09:23:46.653Z,4.95
2023-05-16T09:26:16.169Z,1.25
2023-05-16T09:28:45.648Z,2.67
2023-05-16T09:31:26.858Z,1.75
2023-05-16T09:34:17.254Z,0.90
2023-05-16T09:36:46.576Z,2.38
2023-05-16T09:39:17.182Z,1.25
2023-05-16T09:41:46.512Z,4.00
2023-05-16T09:44:15.744Z,1.38
2023-05-16T09:46:44.908Z,2.72
2023-05-16T09:49:34.407Z,2.40
2023-05-16T09:52:03.928Z,2.45
2023-05-16T09:54:34.216Z,2.50
2023-05-16T09:57:03.525Z,2.30
2023-05-16T09:59:32.975Z,2.95
2023-05-16T10:02:20.527Z,2.90
2023-05-16T10:04:51.893Z,1.55
2023-05-16T10:07:40.330Z,0.70
2023-05-16T10:10:11.038Z,2.30
2023-05-16T10:12:40.703Z,1.23
2023-05-16T10:15:11.782Z,0.75
2023-05-16T10:18:02.166Z,0.80
2023-05-16T10:20:32.891Z,0.82
2023-05-16T10:23:03.495Z,1.58
2023-05-16T10:25:35.758Z,8.00
2023-05-16T10:28:05.372Z,2.00
2023-05-16T10:30:35.310Z,1.40
2023-05-16T10:33:05.816Z,4.60
2023-05-16T10:35:57.007Z,0.82
2023-05-16T10:38:26.648Z,2.80
2023-05-16T10:40:56.150Z,2.85
2023-05-16T10:43:27.170Z,3.53
2023-05-16T10:45:57.905Z,2.92
2023-05-16T10:48:31.816Z,1.55
2023-05-16T10:51:40.262Z,1.70
2023-05-16T10:54:12.716Z,3.65
2023-05-16T10:56:43.410Z,5.55
2023-05-16T10:59:26.605Z,2.45
2023-05-16T11:01:57.411Z,1.58
2023-05-16T11:04:50.320Z,0.75
2023-05-16T11:07:39.485Z,0.75
2023-05-16T11:10:10.748Z,1.83
2023-05-16T11:13:08.800Z,1.15
2023-05-16T11:15:55.253Z,5.80
2023-05-16T11:18:25.509Z,0.80
2023-05-16T11:20:55.463Z,2.70
2023-05-16T11:23:45.026Z,3.13
2023-05-16T11:26:15.078Z,4.47
2023-05-16T11:28:44.211Z,2.38
2023-05-16T11:31:13.583Z,1.77
2023-05-16T11:34:01.349Z,1.95
2023-05-16T11:36:31.296Z,0.60
2023-05-16T11:39:10.695Z,3.97
2023-05-16T11:41:41.304Z,2.70
2023-05-16T11:44:13.426Z,1.15
2023-05-16T11:46:42.799Z,1.67
2023-05-16T11:49:13.163Z,2.47
2023-05-16T11:51:43.499Z,0.70
2023-05-16T11:54:15.014Z,1.63
2023-05-16T11:56:44.169Z,1.95
2023-05-16T11:59:13.524Z,0.88
2023-05-16T12:01:42.761Z,1.02
2023-05-16T12:04:30.363Z,9.95
2023-05-16T12:07:02.278Z,0.98
2023-05-16T12:09:33.088Z,3.25
2023-05-16T12:12:24.231Z,1.30
2023-05-16T12:14:53.484Z,1.42
2023-05-16T12:17:22.733Z,2.47
2023-05-16T12:19:52.616Z,1.20
2023-05-16T12:22:41.076Z,8.38
2023-05-16T12:25:32.221Z,1.67
2023-05-16T12:28:03.133Z,3.45
2023-05-16T12:30:34.640Z,2.90
2023-05-16T12:33:09.641Z,1.13
2023-05-16T12:35:40.706Z,2.53
2023-05-16T12:38:11.912Z,7.65
2023-05-16T12:40:44.955Z,9.48
2023-05-16T12:43:17.338Z,3.38
2023-05-16T12:45:52.974Z,2.67
2023-05-16T12:48:23.278Z,2.10
2023-05-16T12:50:53.607Z,1.55
2023-05-16T12:53:23.036Z,2.70
2023-05-16T12:55:53.538Z,1.30
2023-05-16T12:58:23.042Z,2.35
2023-05-16T13:00:52.133Z,3.80
2023-05-16T13:03:21.962Z,2.53
2023-05-16T13:05:51.130Z,2.38
2023-05-16T13:08:20.683Z,1.40
2023-05-16T13:10:49.830Z,2.70
2023-05-16T13:13:32.508Z,1.25
2023-05-16T13:16:05.724Z,3.05
2023-05-16T13:18:36.522Z,3.88
2023-05-16T13:21:05.803Z,1.52
2023-05-16T13:23:35.046Z,3.10
2023-05-16T13:26:05.928Z,2.35
2023-05-16T13:28:36.560Z,3.30
2023-05-16T13:31:05.909Z,1.98
2023-05-16T13:33:36.277Z,6.05
2023-05-16T13:36:06.752Z,1.55
2023-05-16T13:38:37.564Z,1.40
2023-05-16T13:41:06.980Z,0.93
2023-05-16T13:43:37.469Z,2.35
2023-05-16T13:46:06.933Z,3.35
2023-05-16T13:48:36.170Z,1.20
2023-05-16T13:51:05.594Z,1.20
2023-05-16T13:53:34.739Z,5.20
2023-05-16T13:56:03.842Z,2.10
2023-05-16T13:58:33.060Z,6.68
2023-05-16T14:01:03.824Z,8.23
2023-05-16T14:03:33.224Z,3.72
2023-05-16T14:06:02.690Z,2.72
2023-05-16T14:08:31.791Z,3.38
2023-05-16T14:11:00.955Z,4.40
2023-05-16T14:13:30.345Z,1.63
2023-05-16T14:15:59.544Z,4.18
2023-05-16T14:18:30.291Z,5.68
2023-05-16T14:20:59.616Z,2.17
2023-05-16T14:23:28.965Z,2.90
2023-05-16T14:25:58.040Z,1.45
2023-05-16T14:28:27.237Z,2.90
2023-05-16T14:30:56.399Z,3.35
2023-05-16T14:33:25.712Z,4.45
2023-05-16T14:35:56.213Z,2.67
2023-05-16T14:38:25.318Z,3.10
2023-05-16T14:40:54.586Z,1.50
2023-05-16T14:43:23.963Z,3.28
2023-05-16T14:45:53.198Z,4.10
2023-05-16T14:48:22.384Z,1.50
2023-05-16T14:50:51.634Z,4.90
2023-05-16T14:53:23.013Z,5.60
2023-05-16T14:55:52.335Z,3.90
2023-05-16T14:58:23.776Z,3.78
2023-05-16T15:00:53.182Z,2.60
2023-05-16T15:03:22.345Z,2.55
2023-05-16T15:05:52.859Z,3.25
2023-05-16T15:08:23.698Z,2.83
2023-05-16T15:10:52.999Z,2.60
2023-05-16T15:13:22.171Z,3.58
2023-05-16T15:15:51.651Z,2.42
2023-05-16T15:18:20.726Z,2.35
2023-05-16T15:20:49.867Z,1.40
2023-05-16T15:23:19.081Z,5.05
2023-05-16T15:25:49.589Z,1.88
2023-05-16T15:28:21.773Z,2.08
2023-05-16T15:30:52.999Z,2.10
2023-05-16T15:33:22.177Z,4.38
2023-05-16T15:35:52.100Z,10.38
2023-05-16T15:38:21.204Z,1.63
2023-05-16T15:41:05.020Z,4.43
2023-05-16T15:43:42.176Z,2.90
2023-05-16T15:46:11.668Z,6.55
2023-05-16T15:48:43.060Z,5.20
2023-05-16T15:51:13.421Z,7.13
2023-05-16T15:53:42.790Z,6.05
2023-05-16T15:56:13.247Z,5.10
2023-05-16T15:58:42.240Z,5.55
2023-05-16T16:01:11.450Z,2.28
2023-05-16T16:03:40.850Z,6.43
2023-05-16T16:06:10.089Z,1.52
2023-05-16T16:08:39.196Z,2.97
2023-05-16T16:11:09.386Z,3.50
2023-05-16T16:13:39.956Z,1.45
2023-05-16T16:16:09.543Z,3.38
2023-05-16T16:18:41.040Z,4.28
2023-05-16T16:21:10.562Z,4.05
2023-05-16T16:23:40.494Z,2.00
2023-05-16T16:26:09.602Z,2.45
2023-05-16T16:28:40.222Z,8.70
2023-05-16T16:31:09.258Z,3.42
2023-05-16T16:33:38.404Z,2.60
2023-05-16T16:36:07.967Z,5.68
2023-05-16T16:38:37.156Z,6.28
2023-05-16T16:41:06.401Z,3.50
2023-05-16T16:43:35.669Z,1.52
2023-05-16T16:46:06.437Z,6.45
2023-05-16T16:48:35.752Z,3.97
2023-05-16T16:51:05.360Z,3.08
2023-05-16T16:53:35.356Z,9.57
2023-05-16T16:56:04.833Z,1.92
2023-05-16T16:58:33.844Z,3.63
2023-05-16T17:01:04.109Z,5.68
2023-05-16T17:03:34.698Z,6.82
2023-05-16T17:06:05.425Z,3.88
2023-05-16T17:08:34.390Z,3.30
2023-05-16T17:11:05.416Z,3.55
2023-05-16T17:13:37.681Z,2.72
2023-05-16T17:16:08.229Z,4.43
2023-05-16T17:18:40.775Z,2.75
2023-05-16T17:21:13.194Z,3.95
2023-05-16T17:23:44.115Z,5.18
2023-05-16T17:26:14.228Z,4.82
2023-05-16T17:28:43.598Z,2.38
2023-05-16T17:31:12.856Z,5.65
2023-05-16T17:34:03.669Z,7.20
2023-05-16T17:36:33.021Z,3.75
2023-05-16T17:39:19.420Z,3.88
2023-05-16T17:41:49.061Z,3.28
2023-05-16T17:44:22.461Z,5.35
2023-05-16T17:46:52.391Z,5.03
2023-05-16T17:49:23.066Z,5.45
2023-05-16T17:51:54.305Z,5.25
2023-05-16T17:54:24.274Z,3.72
2023-05-16T17:56:53.876Z,5.28
2023-05-16T17:59:22.999Z,5.03
2023-05-16T18:01:52.064Z,7.28
2023-05-16T18:04:23.894Z,5.47
2023-05-16T18:06:53.481Z,5.18
2023-05-16T18:09:23.029Z,6.43
2023-05-16T18:11:52.186Z,2.95
2023-05-16T18:14:39.690Z,2.70
2023-05-16T18:17:09.659Z,4.95
2023-05-16T18:19:57.738Z,3.63
2023-05-16T18:22:27.732Z,5.78
2023-05-16T18:24:56.994Z,6.30
2023-05-16T18:27:26.036Z,3.53
2023-05-16T18:29:55.695Z,4.82
2023-05-16T18:32:44.043Z,9.85
2023-05-16T18:35:35.359Z,6.35
2023-05-16T18:38:04.510Z,5.00
2023-05-16T18:40:52.041Z,5.13
2023-05-16T18:43:38.621Z,4.47
2023-05-16T18:46:07.780Z,7.35
2023-05-16T18:48:36.885Z,4.85
2023-05-16T18:51:25.216Z,8.05
2023-05-16T18:53:54.467Z,3.85
2023-05-16T18:56:23.771Z,5.15
2023-05-16T18:58:52.802Z,5.13
2023-05-16T19:01:22.865Z,3.78
2023-05-16T19:03:52.735Z,6.38
2023-05-16T19:06:23.486Z,5.90
2023-05-16T19:08:52.770Z,8.90
2023-05-16T19:11:22.564Z,10.38
2023-05-16T19:13:51.738Z,4.75
2023-05-16T19:16:21.022Z,6.47
2023-05-16T19:18:50.647Z,5.15
2023-05-16T19:21:20.293Z,9.43
2023-05-16T19:23:50.780Z,6.80
2023-05-16T19:26:20.706Z,5.15
2023-05-16T19:28:50.476Z,8.90
2023-05-16T19:31:19.891Z,8.38
2023-05-16T19:33:49.066Z,4.97
2023-05-16T19:36:18.387Z,5.65
2023-05-16T19:38:47.640Z,4.32
2023-05-16T19:41:18.610Z,5.78
2023-05-16T19:43:47.641Z,3.45
2023-05-16T19:46:16.720Z,3.83
2023-05-16T19:48:45.838Z,6.00
2023-05-16T19:51:15.735Z,7.18
2023-05-16T19:53:46.176Z,5.20
2023-05-16T19:56:15.442Z,9.68
2023-05-16T19:58:47.738Z,4.93
2023-05-16T20:01:16.823Z,4.88
2023-05-16T20:03:46.807Z,3.35
2023-05-16T20:06:15.996Z,3.20
2023-05-16T20:08:45.060Z,5.47
2023-05-16T20:11:14.341Z,4.63
2023-05-16T20:13:43.485Z,5.15
2023-05-16T20:16:14.412Z,4.25
2023-05-16T20:18:43.544Z,6.15
2023-05-16T20:21:31.287Z,7.97
2023-05-16T20:24:00.371Z,8.32
2023-05-16T20:26:29.622Z,7.15
2023-05-16T20:28:58.822Z,5.68
2023-05-16T20:31:29.331Z,7.40
2023-05-16T20:33:58.539Z,4.38
2023-05-16T20:36:28.000Z,6.13
2023-05-16T20:38:57.017Z,5.22
2023-05-16T20:41:44.776Z,8.85
2023-05-16T20:44:13.874Z,6.45
2023-05-16T20:46:44.360Z,5.85
2023-05-16T20:49:13.477Z,6.90
2023-05-16T20:51:42.739Z,12.23
2023-05-16T20:54:13.024Z,6.75
2023-05-16T20:56:42.243Z,4.38
2023-05-16T20:59:11.433Z,5.07
2023-05-16T21:01:40.658Z,4.00
2023-05-16T21:04:11.262Z,8.48
2023-05-16T21:06:40.369Z,6.88
2023-05-16T21:09:09.517Z,7.47
2023-05-16T21:11:38.648Z,9.50
2023-05-16T21:14:07.742Z,7.88
2023-05-16T21:16:36.832Z,8.15
2023-05-16T21:19:06.142Z,8.75
2023-05-16T21:21:37.026Z,8.18
2023-05-16T21:24:06.625Z,7.32
2023-05-16T21:26:35.760Z,10.73
2023-05-16T21:29:05.392Z,8.15
2023-05-16T21:31:34.481Z,11.48
2023-05-16T21:34:03.695Z,7.85
2023-05-16T21:36:33.185Z,6.22
2023-05-16T21:39:03.770Z,7.10
2023-05-16T21:41:32.943Z,8.90
2023-05-16T21:44:02.092Z,6.82
2023-05-16T21:46:31.306Z,8.50
2023-05-16T21:49:00.746Z,7.72
2023-05-16T21:51:29.910Z,10.00
2023-05-16T21:53:59.054Z,8.60
2023-05-16T21:56:29.727Z,12.25
2023-05-16T21:58:58.760Z,7.13
2023-05-16T22:01:29.376Z,7.85
2023-05-16T22:03:59.177Z,8.18
2023-05-16T22:06:28.508Z,7.45
2023-05-16T22:08:58.085Z,8.13
2023-05-16T22:11:27.490Z,12.80
2023-05-16T22:13:57.967Z,9.95
2023-05-16T22:16:26.997Z,10.02
2023-05-16T22:18:56.196Z,9.30
2023-05-16T22:21:25.339Z,6.45
2023-05-16T22:23:54.369Z,8.25
2023-05-16T22:26:23.484Z,7.20
2023-05-16T22:28:52.523Z,6.70
2023-05-16T22:31:23.096Z,9.73
2023-05-16T22:33:52.136Z,6.72
2023-05-16T22:36:21.197Z,9.10
2023-05-16T22:38:50.510Z,7.90
2023-05-16T22:41:19.459Z,6.05
2023-05-16T22:43:48.418Z,10.15
2023-05-16T22:46:17.414Z,9.18
2023-05-16T22:48:47.811Z,11.07
2023-05-16T22:51:17.458Z,6.72
2023-05-16T22:53:46.638Z,6.47
2023-05-16T22:56:15.765Z,9.55
2023-05-16T22:58:44.756Z,6.43
2023-05-16T23:01:13.823Z,9.73
2023-05-16T23:03:42.912Z,8.20
2023-05-16T23:06:13.316Z,8.27
2023-05-16T23:08:42.823Z,8.13
2023-05-16T23:11:11.816Z,6.72
2023-05-16T23:13:40.848Z,5.38
2023-05-16T23:16:10.013Z,8.43
2023-05-16T23:18:39.116Z,6.93
2023-05-16T23:21:08.325Z,5.30
2023-05-16T23:23:38.745Z,7.55
2023-05-16T23:26:07.837Z,5.97
2023-05-16T23:28:36.800Z,8.40
2023-05-16T23:31:06.487Z,8.35
2023-05-16T23:33:35.704Z,7.05
2023-05-16T23:36:04.976Z,10.90
2023-05-16T23:38:34.097Z,10.00
2023-05-16T23:41:04.471Z,8.13
2023-05-16T23:43:33.453Z,11.52
2023-05-16T23:46:02.492Z,11.75
2023-05-16T23:48:31.770Z,7.93
2023-05-16T23:51:02.759Z,11.50
2023-05-16T23:53:33.056Z,8.15
2023-05-16T23:56:02.139Z,10.55
2023-05-16T23:58:32.690Z,10.23
